KLRU/LRU METAR and TAF weather

Enter ICAO airport designator
Station Type Date Time Source
KLRU METAR 2021/10/22 20:15 UTC NOAA

KLRU 222015Z AUTO 00000KT 10SM SCT100 27/05 A3007 RMK AO2 T02720052


Station Type Date Time Source
KLRU Decoded METAR 2021/10/22 20:15 UTC NOAA

Las Cruces, Las Cruces International Airport, NM, United States (KLRU) 32-17-22N 106-55-19W
Oct 22, 2021 - 04:15 PM EDT / 2021.10.22 2015 UTC
Wind: Calm:0
Visibility: 10 mile(s):0
Sky conditions: partly cloudy
Temperature: 81.0 F (27.2 C)
Dew Point: 41.4 F (5.2 C)
Relative Humidity: 24%
Pressure (altimeter): 30.07 in. Hg (1018 hPa)
ob: KLRU 222015Z AUTO 00000KT 10SM SCT100 27/05 A3007 RMK AO2 T02720052
cycle: 20

Station Type Date Time Source
KLRU TAF 2021/10/22 18:39 UTC NOAA

TAF KLRU 221737Z 2218/2318 20005KT P6SM FEW250
FM230200 26005KT P6SM FEW250

Example: see airport list